sensor_id;sensor_type;location;lat;lon;timestamp;temperature;humidity
19680;DHT22;9989;48.962;9.182;2023-07-13T00:02:06;21.60;96.00
19680;DHT22;9989;48.962;9.182;2023-07-13T00:04:32;21.50;96.20
19680;DHT22;9989;48.962;9.182;2023-07-13T00:06:58;21.40;96.20
19680;DHT22;9989;48.962;9.182;2023-07-13T00:09:24;21.40;96.30
19680;DHT22;9989;48.962;9.182;2023-07-13T00:11:52;21.40;96.30
19680;DHT22;9989;48.962;9.182;2023-07-13T00:14:18;21.30;96.40
19680;DHT22;9989;48.962;9.182;2023-07-13T00:16:43;21.30;96.30
19680;DHT22;9989;48.962;9.182;2023-07-13T00:19:10;21.20;96.20
19680;DHT22;9989;48.962;9.182;2023-07-13T00:21:37;21.20;96.10
19680;DHT22;9989;48.962;9.182;2023-07-13T00:24:04;21.20;95.80
19680;DHT22;9989;48.962;9.182;2023-07-13T00:26:30;21.20;95.60
19680;DHT22;9989;48.962;9.182;2023-07-13T00:28:57;21.20;95.40
19680;DHT22;9989;48.962;9.182;2023-07-13T00:31:23;21.20;95.20
19680;DHT22;9989;48.962;9.182;2023-07-13T00:33:49;21.20;95.10
19680;DHT22;9989;48.962;9.182;2023-07-13T00:36:15;21.20;94.90
19680;DHT22;9989;48.962;9.182;2023-07-13T00:38:41;21.20;94.80
19680;DHT22;9989;48.962;9.182;2023-07-13T00:41:06;21.10;94.70
19680;DHT22;9989;48.962;9.182;2023-07-13T00:43:32;21.10;94.80
19680;DHT22;9989;48.962;9.182;2023-07-13T00:46:31;21.10;94.90
19680;DHT22;9989;48.962;9.182;2023-07-13T00:49:00;21.10;95.00
19680;DHT22;9989;48.962;9.182;2023-07-13T00:51:31;21.10;94.90
19680;DHT22;9989;48.962;9.182;2023-07-13T00:54:00;21.00;94.90
19680;DHT22;9989;48.962;9.182;2023-07-13T00:56:29;21.00;94.90
19680;DHT22;9989;48.962;9.182;2023-07-13T00:58:55;21.00;94.80
19680;DHT22;9989;48.962;9.182;2023-07-13T01:01:22;20.90;94.80
19680;DHT22;9989;48.962;9.182;2023-07-13T01:03:48;20.90;94.80
19680;DHT22;9989;48.962;9.182;2023-07-13T01:06:14;20.90;94.90
19680;DHT22;9989;48.962;9.182;2023-07-13T01:08:39;20.80;95.00
19680;DHT22;9989;48.962;9.182;2023-07-13T01:11:05;20.70;95.00
19680;DHT22;9989;48.962;9.182;2023-07-13T01:13:33;20.80;94.90
19680;DHT22;9989;48.962;9.182;2023-07-13T01:16:03;20.70;94.70
19680;DHT22;9989;48.962;9.182;2023-07-13T01:18:29;20.70;94.30
19680;DHT22;9989;48.962;9.182;2023-07-13T01:21:01;20.70;94.20
19680;DHT22;9989;48.962;9.182;2023-07-13T01:23:27;20.70;94.10
19680;DHT22;9989;48.962;9.182;2023-07-13T01:25:54;20.60;94.00
19680;DHT22;9989;48.962;9.182;2023-07-13T01:28:20;20.60;94.10
19680;DHT22;9989;48.962;9.182;2023-07-13T01:30:47;20.60;93.90
19680;DHT22;9989;48.962;9.182;2023-07-13T01:33:14;20.60;94.10
19680;DHT22;9989;48.962;9.182;2023-07-13T01:35:40;20.60;94.10
19680;DHT22;9989;48.962;9.182;2023-07-13T01:38:07;20.50;93.90
19680;DHT22;9989;48.962;9.182;2023-07-13T01:40:34;20.50;93.90
19680;DHT22;9989;48.962;9.182;2023-07-13T01:43:00;20.50;93.80
19680;DHT22;9989;48.962;9.182;2023-07-13T01:45:26;20.50;93.90
19680;DHT22;9989;48.962;9.182;2023-07-13T01:47:52;20.50;94.00
19680;DHT22;9989;48.962;9.182;2023-07-13T01:50:17;20.50;94.10
19680;DHT22;9989;48.962;9.182;2023-07-13T01:52:43;20.50;94.00
19680;DHT22;9989;48.962;9.182;2023-07-13T01:55:09;20.50;93.90
19680;DHT22;9989;48.962;9.182;2023-07-13T01:57:34;20.40;93.80
19680;DHT22;9989;48.962;9.182;2023-07-13T02:00:03;20.40;93.80
19680;DHT22;9989;48.962;9.182;2023-07-13T02:02:31;20.40;94.00
19680;DHT22;9989;48.962;9.182;2023-07-13T02:04:57;20.40;94.00
19680;DHT22;9989;48.962;9.182;2023-07-13T02:07:22;20.40;94.10
19680;DHT22;9989;48.962;9.182;2023-07-13T02:09:48;20.40;94.10
19680;DHT22;9989;48.962;9.182;2023-07-13T02:12:13;20.30;94.00
19680;DHT22;9989;48.962;9.182;2023-07-13T02:14:39;20.30;94.00
19680;DHT22;9989;48.962;9.182;2023-07-13T02:17:05;20.30;94.10
19680;DHT22;9989;48.962;9.182;2023-07-13T02:19:31;20.30;94.00
19680;DHT22;9989;48.962;9.182;2023-07-13T02:21:57;20.30;93.80
19680;DHT22;9989;48.962;9.182;2023-07-13T02:24:23;20.20;93.60
19680;DHT22;9989;48.962;9.182;2023-07-13T02:26:48;20.20;93.40
19680;DHT22;9989;48.962;9.182;2023-07-13T02:29:14;20.20;93.40
19680;DHT22;9989;48.962;9.182;2023-07-13T02:31:39;20.20;93.40
19680;DHT22;9989;48.962;9.182;2023-07-13T02:34:05;20.20;93.50
19680;DHT22;9989;48.962;9.182;2023-07-13T02:36:31;20.20;93.50
19680;DHT22;9989;48.962;9.182;2023-07-13T02:39:02;20.20;93.60
19680;DHT22;9989;48.962;9.182;2023-07-13T02:41:28;20.20;93.80
19680;DHT22;9989;48.962;9.182;2023-07-13T02:43:55;20.20;94.00
19680;DHT22;9989;48.962;9.182;2023-07-13T02:46:28;20.20;94.20
19680;DHT22;9989;48.962;9.182;2023-07-13T02:48:54;20.20;94.40
19680;DHT22;9989;48.962;9.182;2023-07-13T02:51:20;20.20;94.70
19680;DHT22;9989;48.962;9.182;2023-07-13T02:53:46;20.20;95.00
19680;DHT22;9989;48.962;9.182;2023-07-13T02:56:12;20.10;95.40
19680;DHT22;9989;48.962;9.182;2023-07-13T02:58:37;20.10;95.30
19680;DHT22;9989;48.962;9.182;2023-07-13T03:01:07;20.10;95.40
19680;DHT22;9989;48.962;9.182;2023-07-13T03:03:33;20.00;95.80
19680;DHT22;9989;48.962;9.182;2023-07-13T03:06:01;19.90;96.30
19680;DHT22;9989;48.962;9.182;2023-07-13T03:08:27;19.80;96.70
19680;DHT22;9989;48.962;9.182;2023-07-13T03:11:10;19.70;97.00
19680;DHT22;9989;48.962;9.182;2023-07-13T03:13:37;19.60;97.40
19680;DHT22;9989;48.962;9.182;2023-07-13T03:16:03;19.50;97.70
19680;DHT22;9989;48.962;9.182;2023-07-13T03:18:29;19.40;97.80
19680;DHT22;9989;48.962;9.182;2023-07-13T03:20:55;19.30;98.00
19680;DHT22;9989;48.962;9.182;2023-07-13T03:23:21;19.30;97.90
19680;DHT22;9989;48.962;9.182;2023-07-13T03:25:48;19.30;97.90
19680;DHT22;9989;48.962;9.182;2023-07-13T03:28:14;19.30;98.00
19680;DHT22;9989;48.962;9.182;2023-07-13T03:30:41;19.20;98.10
19680;DHT22;9989;48.962;9.182;2023-07-13T03:33:06;19.20;98.30
19680;DHT22;9989;48.962;9.182;2023-07-13T03:35:32;19.10;98.50
19680;DHT22;9989;48.962;9.182;2023-07-13T03:37:59;19.10;98.80
19680;DHT22;9989;48.962;9.182;2023-07-13T03:40:26;19.10;99.00
19680;DHT22;9989;48.962;9.182;2023-07-13T03:42:52;19.20;99.20
19680;DHT22;9989;48.962;9.182;2023-07-13T03:45:18;19.20;99.30
19680;DHT22;9989;48.962;9.182;2023-07-13T03:47:43;19.20;99.50
19680;DHT22;9989;48.962;9.182;2023-07-13T03:50:09;19.20;99.60
19680;DHT22;9989;48.962;9.182;2023-07-13T03:52:35;19.20;99.80
19680;DHT22;9989;48.962;9.182;2023-07-13T03:55:00;19.10;99.90
19680;DHT22;9989;48.962;9.182;2023-07-13T03:57:26;19.10;99.90
19680;DHT22;9989;48.962;9.182;2023-07-13T03:59:52;19.10;99.90
19680;DHT22;9989;48.962;9.182;2023-07-13T04:02:18;19.10;99.90
19680;DHT22;9989;48.962;9.182;2023-07-13T04:04:43;19.10;99.90
19680;DHT22;9989;48.962;9.182;2023-07-13T04:07:09;19.20;99.90
19680;DHT22;9989;48.962;9.182;2023-07-13T04:09:35;19.10;99.90
19680;DHT22;9989;48.962;9.182;2023-07-13T04:12:01;19.10;99.90
19680;DHT22;9989;48.962;9.182;2023-07-13T04:14:27;19.10;99.90
19680;DHT22;9989;48.962;9.182;2023-07-13T04:16:52;19.10;99.90
19680;DHT22;9989;48.962;9.182;2023-07-13T04:19:20;19.20;99.90
19680;DHT22;9989;48.962;9.182;2023-07-13T04:21:46;19.20;99.90
19680;DHT22;9989;48.962;9.182;2023-07-13T04:24:11;19.20;99.90
19680;DHT22;9989;48.962;9.182;2023-07-13T04:26:37;19.20;99.90
19680;DHT22;9989;48.962;9.182;2023-07-13T04:29:04;19.20;99.90
19680;DHT22;9989;48.962;9.182;2023-07-13T04:31:30;19.20;99.90
19680;DHT22;9989;48.962;9.182;2023-07-13T04:33:56;19.30;99.90
19680;DHT22;9989;48.962;9.182;2023-07-13T04:36:22;19.20;99.90
19680;DHT22;9989;48.962;9.182;2023-07-13T04:38:47;19.20;99.90
19680;DHT22;9989;48.962;9.182;2023-07-13T04:41:14;19.20;99.90
19680;DHT22;9989;48.962;9.182;2023-07-13T04:43:40;19.20;99.90
19680;DHT22;9989;48.962;9.182;2023-07-13T04:46:17;19.30;99.90
19680;DHT22;9989;48.962;9.182;2023-07-13T04:48:43;19.20;99.90
19680;DHT22;9989;48.962;9.182;2023-07-13T04:51:09;19.20;99.90
19680;DHT22;9989;48.962;9.182;2023-07-13T04:53:35;19.30;99.90
19680;DHT22;9989;48.962;9.182;2023-07-13T04:56:02;19.30;99.90
19680;DHT22;9989;48.962;9.182;2023-07-13T04:58:28;19.30;99.90
19680;DHT22;9989;48.962;9.182;2023-07-13T05:01:00;19.30;99.90
19680;DHT22;9989;48.962;9.182;2023-07-13T05:03:26;19.30;99.90
19680;DHT22;9989;48.962;9.182;2023-07-13T05:06:00;19.30;99.90
19680;DHT22;9989;48.962;9.182;2023-07-13T05:08:26;19.30;99.90
19680;DHT22;9989;48.962;9.182;2023-07-13T05:10:52;19.40;99.90
19680;DHT22;9989;48.962;9.182;2023-07-13T05:13:18;19.50;99.90
19680;DHT22;9989;48.962;9.182;2023-07-13T05:15:44;19.50;99.90
19680;DHT22;9989;48.962;9.182;2023-07-13T05:18:09;19.60;99.90
19680;DHT22;9989;48.962;9.182;2023-07-13T05:20:35;19.80;99.90
19680;DHT22;9989;48.962;9.182;2023-07-13T05:23:00;19.90;99.90
19680;DHT22;9989;48.962;9.182;2023-07-13T05:25:26;20.00;99.90
19680;DHT22;9989;48.962;9.182;2023-07-13T05:27:52;20.00;99.90
19680;DHT22;9989;48.962;9.182;2023-07-13T05:30:17;20.10;99.90
19680;DHT22;9989;48.962;9.182;2023-07-13T05:32:43;20.10;99.90
19680;DHT22;9989;48.962;9.182;2023-07-13T05:35:09;20.10;99.90
19680;DHT22;9989;48.962;9.182;2023-07-13T05:37:34;20.00;99.90
19680;DHT22;9989;48.962;9.182;2023-07-13T05:40:00;20.00;99.90
19680;DHT22;9989;48.962;9.182;2023-07-13T05:42:26;20.10;99.90
19680;DHT22;9989;48.962;9.182;2023-07-13T05:44:51;20.10;99.90
19680;DHT22;9989;48.962;9.182;2023-07-13T05:47:17;20.10;99.90
19680;DHT22;9989;48.962;9.182;2023-07-13T05:49:43;20.10;99.90
19680;DHT22;9989;48.962;9.182;2023-07-13T05:52:08;20.10;99.90
19680;DHT22;9989;48.962;9.182;2023-07-13T05:54:35;20.20;99.90
19680;DHT22;9989;48.962;9.182;2023-07-13T05:57:01;20.20;99.90
19680;DHT22;9989;48.962;9.182;2023-07-13T05:59:26;20.30;99.90
19680;DHT22;9989;48.962;9.182;2023-07-13T06:01:52;20.30;99.90
19680;DHT22;9989;48.962;9.182;2023-07-13T06:04:18;20.40;99.90
19680;DHT22;9989;48.962;9.182;2023-07-13T06:06:44;20.40;99.90
19680;DHT22;9989;48.962;9.182;2023-07-13T06:09:10;20.40;99.90
19680;DHT22;9989;48.962;9.182;2023-07-13T06:11:36;20.50;99.90
19680;DHT22;9989;48.962;9.182;2023-07-13T06:14:02;20.50;99.90
19680;DHT22;9989;48.962;9.182;2023-07-13T06:16:27;20.50;99.90
19680;DHT22;9989;48.962;9.182;2023-07-13T06:18:53;20.50;99.90
19680;DHT22;9989;48.962;9.182;2023-07-13T06:21:21;20.50;99.90
19680;DHT22;9989;48.962;9.182;2023-07-13T06:23:48;20.60;99.90
19680;DHT22;9989;48.962;9.182;2023-07-13T06:26:14;20.70;99.90
19680;DHT22;9989;48.962;9.182;2023-07-13T06:28:39;20.70;99.80
19680;DHT22;9989;48.962;9.182;2023-07-13T06:31:07;20.70;99.70
19680;DHT22;9989;48.962;9.182;2023-07-13T06:33:33;20.60;99.70
19680;DHT22;9989;48.962;9.182;2023-07-13T06:35:59;20.60;99.20
19680;DHT22;9989;48.962;9.182;2023-07-13T06:38:24;20.60;98.90
19680;DHT22;9989;48.962;9.182;2023-07-13T06:40:50;20.60;98.90
19680;DHT22;9989;48.962;9.182;2023-07-13T06:43:16;20.60;99.30
19680;DHT22;9989;48.962;9.182;2023-07-13T06:45:44;20.60;99.30
19680;DHT22;9989;48.962;9.182;2023-07-13T06:48:11;20.70;99.40
19680;DHT22;9989;48.962;9.182;2023-07-13T06:50:37;20.90;99.20
19680;DHT22;9989;48.962;9.182;2023-07-13T06:53:03;21.00;98.80
19680;DHT22;9989;48.962;9.182;2023-07-13T06:55:29;21.10;98.10
19680;DHT22;9989;48.962;9.182;2023-07-13T06:57:54;21.10;98.20
19680;DHT22;9989;48.962;9.182;2023-07-13T07:00:20;21.10;97.30
19680;DHT22;9989;48.962;9.182;2023-07-13T07:02:46;21.10;97.40
19680;DHT22;9989;48.962;9.182;2023-07-13T07:05:12;21.10;97.30
19680;DHT22;9989;48.962;9.182;2023-07-13T07:07:37;21.10;97.60
19680;DHT22;9989;48.962;9.182;2023-07-13T07:10:03;21.10;97.50
19680;DHT22;9989;48.962;9.182;2023-07-13T07:12:29;21.10;96.80
19680;DHT22;9989;48.962;9.182;2023-07-13T07:14:55;21.10;96.70
19680;DHT22;9989;48.962;9.182;2023-07-13T07:17:20;21.00;96.50
19680;DHT22;9989;48.962;9.182;2023-07-13T07:19:46;21.00;96.00
19680;DHT22;9989;48.962;9.182;2023-07-13T07:22:12;21.10;95.80
19680;DHT22;9989;48.962;9.182;2023-07-13T07:24:38;21.10;95.90
19680;DHT22;9989;48.962;9.182;2023-07-13T07:27:04;21.20;95.00
19680;DHT22;9989;48.962;9.182;2023-07-13T07:29:29;21.20;95.00
19680;DHT22;9989;48.962;9.182;2023-07-13T07:31:55;21.30;94.40
19680;DHT22;9989;48.962;9.182;2023-07-13T07:34:20;21.40;94.40
19680;DHT22;9989;48.962;9.182;2023-07-13T07:36:46;21.50;93.80
19680;DHT22;9989;48.962;9.182;2023-07-13T07:39:12;21.60;93.90
19680;DHT22;9989;48.962;9.182;2023-07-13T07:41:38;21.60;93.30
19680;DHT22;9989;48.962;9.182;2023-07-13T07:44:04;21.70;92.90
19680;DHT22;9989;48.962;9.182;2023-07-13T07:46:30;21.80;92.20
19680;DHT22;9989;48.962;9.182;2023-07-13T07:48:56;21.90;92.10
19680;DHT22;9989;48.962;9.182;2023-07-13T07:51:22;21.90;92.30
19680;DHT22;9989;48.962;9.182;2023-07-13T07:53:48;22.00;92.50
19680;DHT22;9989;48.962;9.182;2023-07-13T07:56:14;22.10;92.00
19680;DHT22;9989;48.962;9.182;2023-07-13T07:58:41;22.20;91.90
19680;DHT22;9989;48.962;9.182;2023-07-13T08:01:07;22.30;91.70
19680;DHT22;9989;48.962;9.182;2023-07-13T08:03:33;22.40;91.70
19680;DHT22;9989;48.962;9.182;2023-07-13T08:05:59;22.50;91.60
19680;DHT22;9989;48.962;9.182;2023-07-13T08:08:25;22.60;91.00
19680;DHT22;9989;48.962;9.182;2023-07-13T08:10:51;22.70;91.40
19680;DHT22;9989;48.962;9.182;2023-07-13T08:13:16;22.80;91.70
19680;DHT22;9989;48.962;9.182;2023-07-13T08:15:42;22.90;91.40
19680;DHT22;9989;48.962;9.182;2023-07-13T08:18:07;23.10;91.60
19680;DHT22;9989;48.962;9.182;2023-07-13T08:20:37;23.20;91.00
19680;DHT22;9989;48.962;9.182;2023-07-13T08:23:03;23.30;90.30
19680;DHT22;9989;48.962;9.182;2023-07-13T08:25:29;23.30;88.40
19680;DHT22;9989;48.962;9.182;2023-07-13T08:27:55;23.30;88.30
19680;DHT22;9989;48.962;9.182;2023-07-13T08:30:20;23.40;86.80
19680;DHT22;9989;48.962;9.182;2023-07-13T08:32:46;23.30;87.60
19680;DHT22;9989;48.962;9.182;2023-07-13T08:35:12;23.40;88.50
19680;DHT22;9989;48.962;9.182;2023-07-13T08:37:39;23.50;87.30
19680;DHT22;9989;48.962;9.182;2023-07-13T08:40:05;23.60;87.60
19680;DHT22;9989;48.962;9.182;2023-07-13T08:42:43;23.70;86.40
19680;DHT22;9989;48.962;9.182;2023-07-13T08:48:08;24.00;86.60
19680;DHT22;9989;48.962;9.182;2023-07-13T08:51:02;24.10;86.00
19680;DHT22;9989;48.962;9.182;2023-07-13T08:53:48;24.30;84.50
19680;DHT22;9989;48.962;9.182;2023-07-13T08:56:19;24.40;84.40
19680;DHT22;9989;48.962;9.182;2023-07-13T08:58:51;24.60;83.80
19680;DHT22;9989;48.962;9.182;2023-07-13T09:01:47;24.70;83.00
19680;DHT22;9989;48.962;9.182;2023-07-13T09:04:21;24.90;82.30
19680;DHT22;9989;48.962;9.182;2023-07-13T09:07:00;25.00;81.30
19680;DHT22;9989;48.962;9.182;2023-07-13T09:14:56;25.40;76.20
19680;DHT22;9989;48.962;9.182;2023-07-13T09:17:41;25.50;79.70
19680;DHT22;9989;48.962;9.182;2023-07-13T09:20:25;25.70;79.00
19680;DHT22;9989;48.962;9.182;2023-07-13T09:22:52;25.80;73.70
19680;DHT22;9989;48.962;9.182;2023-07-13T09:27:47;25.80;74.20
19680;DHT22;9989;48.962;9.182;2023-07-13T09:32:45;25.70;72.20
19680;DHT22;9989;48.962;9.182;2023-07-13T09:35:17;25.60;73.10
19680;DHT22;9989;48.962;9.182;2023-07-13T09:37:45;25.40;71.80
19680;DHT22;9989;48.962;9.182;2023-07-13T09:40:28;25.40;71.10
19680;DHT22;9989;48.962;9.182;2023-07-13T09:42:57;25.20;70.00
19680;DHT22;9989;48.962;9.182;2023-07-13T09:45:29;25.20;72.60
19680;DHT22;9989;48.962;9.182;2023-07-13T09:48:05;25.30;72.10
19680;DHT22;9989;48.962;9.182;2023-07-13T09:50:34;25.50;72.00
19680;DHT22;9989;48.962;9.182;2023-07-13T09:53:01;25.60;72.10
19680;DHT22;9989;48.962;9.182;2023-07-13T09:57:56;25.80;71.60
19680;DHT22;9989;48.962;9.182;2023-07-13T10:00:25;26.00;71.70
19680;DHT22;9989;48.962;9.182;2023-07-13T10:03:03;26.20;71.30
19680;DHT22;9989;48.962;9.182;2023-07-13T10:05:40;26.40;70.60
19680;DHT22;9989;48.962;9.182;2023-07-13T10:08:28;26.60;70.20
19680;DHT22;9989;48.962;9.182;2023-07-13T10:13:56;26.90;67.70
19680;DHT22;9989;48.962;9.182;2023-07-13T10:16:25;27.00;66.50
19680;DHT22;9989;48.962;9.182;2023-07-13T10:22:22;27.30;67.30
19680;DHT22;9989;48.962;9.182;2023-07-13T10:24:49;27.50;65.20
19680;DHT22;9989;48.962;9.182;2023-07-13T10:27:19;27.60;64.20
19680;DHT22;9989;48.962;9.182;2023-07-13T10:29:50;27.60;62.90
19680;DHT22;9989;48.962;9.182;2023-07-13T10:32:20;27.50;62.50
19680;DHT22;9989;48.962;9.182;2023-07-13T10:34:48;27.40;63.60
19680;DHT22;9989;48.962;9.182;2023-07-13T10:37:24;27.50;65.50
19680;DHT22;9989;48.962;9.182;2023-07-13T10:39:53;27.70;65.90
19680;DHT22;9989;48.962;9.182;2023-07-13T10:42:40;27.90;65.30
19680;DHT22;9989;48.962;9.182;2023-07-13T10:45:14;28.10;64.00
19680;DHT22;9989;48.962;9.182;2023-07-13T10:47:41;28.30;62.90
19680;DHT22;9989;48.962;9.182;2023-07-13T10:50:19;28.50;61.90
19680;DHT22;9989;48.962;9.182;2023-07-13T10:52:53;28.50;62.00
19680;DHT22;9989;48.962;9.182;2023-07-13T10:58:31;28.50;60.80
19680;DHT22;9989;48.962;9.182;2023-07-13T11:03:59;28.50;62.10
19680;DHT22;9989;48.962;9.182;2023-07-13T11:06:39;28.60;61.50
19680;DHT22;9989;48.962;9.182;2023-07-13T11:09:38;28.70;61.80
19680;DHT22;9989;48.962;9.182;2023-07-13T11:15:00;28.90;57.60
19680;DHT22;9989;48.962;9.182;2023-07-13T11:17:36;29.00;55.80
19680;DHT22;9989;48.962;9.182;2023-07-13T11:30:37;28.70;57.10
19680;DHT22;9989;48.962;9.182;2023-07-13T11:33:24;28.60;58.20
19680;DHT22;9989;48.962;9.182;2023-07-13T11:36:04;28.70;57.70
19680;DHT22;9989;48.962;9.182;2023-07-13T11:38:39;28.70;57.30
19680;DHT22;9989;48.962;9.182;2023-07-13T11:41:17;28.70;57.50
19680;DHT22;9989;48.962;9.182;2023-07-13T11:43:44;28.80;58.20
19680;DHT22;9989;48.962;9.182;2023-07-13T11:46:27;28.90;57.00
19680;DHT22;9989;48.962;9.182;2023-07-13T11:48:53;28.90;54.30
19680;DHT22;9989;48.962;9.182;2023-07-13T11:51:23;28.80;56.00
19680;DHT22;9989;48.962;9.182;2023-07-13T11:53:52;28.80;55.40
19680;DHT22;9989;48.962;9.182;2023-07-13T11:56:18;28.80;56.30
19680;DHT22;9989;48.962;9.182;2023-07-13T11:58:49;28.70;57.10
19680;DHT22;9989;48.962;9.182;2023-07-13T12:01:26;28.80;57.60
19680;DHT22;9989;48.962;9.182;2023-07-13T12:03:53;29.00;57.10
19680;DHT22;9989;48.962;9.182;2023-07-13T12:06:33;29.20;56.40
19680;DHT22;9989;48.962;9.182;2023-07-13T12:09:03;29.40;56.40
19680;DHT22;9989;48.962;9.182;2023-07-13T12:11:30;29.50;55.70
19680;DHT22;9989;48.962;9.182;2023-07-13T12:14:00;29.70;55.00
19680;DHT22;9989;48.962;9.182;2023-07-13T12:16:30;29.60;53.60
19680;DHT22;9989;48.962;9.182;2023-07-13T12:18:59;29.50;53.20
19680;DHT22;9989;48.962;9.182;2023-07-13T12:21:38;29.40;54.40
19680;DHT22;9989;48.962;9.182;2023-07-13T12:24:05;29.40;53.60
19680;DHT22;9989;48.962;9.182;2023-07-13T12:26:38;29.30;53.90
19680;DHT22;9989;48.962;9.182;2023-07-13T12:29:06;29.30;53.40
19680;DHT22;9989;48.962;9.182;2023-07-13T12:31:40;29.20;53.60
19680;DHT22;9989;48.962;9.182;2023-07-13T12:34:17;29.20;53.20
19680;DHT22;9989;48.962;9.182;2023-07-13T12:36:56;29.20;54.30
19680;DHT22;9989;48.962;9.182;2023-07-13T12:39:35;29.10;52.80
19680;DHT22;9989;48.962;9.182;2023-07-13T12:42:26;29.10;53.30
19680;DHT22;9989;48.962;9.182;2023-07-13T12:45:02;29.10;50.60
19680;DHT22;9989;48.962;9.182;2023-07-13T12:47:29;28.90;51.40
19680;DHT22;9989;48.962;9.182;2023-07-13T12:49:58;28.90;50.60
19680;DHT22;9989;48.962;9.182;2023-07-13T12:52:29;29.10;51.10
19680;DHT22;9989;48.962;9.182;2023-07-13T12:55:27;29.30;50.80
19680;DHT22;9989;48.962;9.182;2023-07-13T12:57:57;29.40;50.60
19680;DHT22;9989;48.962;9.182;2023-07-13T13:03:06;29.40;50.90
19680;DHT22;9989;48.962;9.182;2023-07-13T13:05:33;29.40;52.60
19680;DHT22;9989;48.962;9.182;2023-07-13T13:07:59;29.50;51.40
19680;DHT22;9989;48.962;9.182;2023-07-13T13:10:25;29.60;51.90
19680;DHT22;9989;48.962;9.182;2023-07-13T13:12:52;29.60;51.40
19680;DHT22;9989;48.962;9.182;2023-07-13T13:15:18;29.70;50.90
19680;DHT22;9989;48.962;9.182;2023-07-13T13:17:44;29.70;50.30
19680;DHT22;9989;48.962;9.182;2023-07-13T13:20:17;29.60;50.60
19680;DHT22;9989;48.962;9.182;2023-07-13T13:22:44;29.60;52.00
19680;DHT22;9989;48.962;9.182;2023-07-13T13:25:11;29.60;51.50
19680;DHT22;9989;48.962;9.182;2023-07-13T13:27:37;29.60;51.00
19680;DHT22;9989;48.962;9.182;2023-07-13T13:30:12;29.60;51.50
19680;DHT22;9989;48.962;9.182;2023-07-13T13:32:40;29.60;51.50
19680;DHT22;9989;48.962;9.182;2023-07-13T13:35:12;29.60;52.30
19680;DHT22;9989;48.962;9.182;2023-07-13T13:37:38;29.60;52.20
19680;DHT22;9989;48.962;9.182;2023-07-13T13:40:17;29.60;52.00
19680;DHT22;9989;48.962;9.182;2023-07-13T13:42:43;29.60;51.70
19680;DHT22;9989;48.962;9.182;2023-07-13T13:45:12;29.70;51.70
19680;DHT22;9989;48.962;9.182;2023-07-13T13:47:39;29.70;51.90
19680;DHT22;9989;48.962;9.182;2023-07-13T13:50:21;29.80;51.50
19680;DHT22;9989;48.962;9.182;2023-07-13T13:52:48;29.80;51.40
19680;DHT22;9989;48.962;9.182;2023-07-13T13:55:21;29.70;51.20
19680;DHT22;9989;48.962;9.182;2023-07-13T13:57:49;29.70;51.40
19680;DHT22;9989;48.962;9.182;2023-07-13T14:00:16;29.60;50.30
19680;DHT22;9989;48.962;9.182;2023-07-13T14:02:46;29.50;50.50
19680;DHT22;9989;48.962;9.182;2023-07-13T14:05:15;29.50;50.90
19680;DHT22;9989;48.962;9.182;2023-07-13T14:07:41;29.50;52.00
19680;DHT22;9989;48.962;9.182;2023-07-13T14:10:17;29.50;51.10
19680;DHT22;9989;48.962;9.182;2023-07-13T14:12:45;29.40;51.30
19680;DHT22;9989;48.962;9.182;2023-07-13T14:17:45;29.40;52.50
19680;DHT22;9989;48.962;9.182;2023-07-13T14:20:16;29.40;51.00
19680;DHT22;9989;48.962;9.182;2023-07-13T14:22:41;29.40;50.30
19680;DHT22;9989;48.962;9.182;2023-07-13T14:25:14;29.30;51.00
19680;DHT22;9989;48.962;9.182;2023-07-13T14:27:41;29.30;52.10
19680;DHT22;9989;48.962;9.182;2023-07-13T14:30:20;29.30;51.70
19680;DHT22;9989;48.962;9.182;2023-07-13T14:32:46;29.40;52.30
19680;DHT22;9989;48.962;9.182;2023-07-13T14:35:13;29.40;52.00
19680;DHT22;9989;48.962;9.182;2023-07-13T14:37:40;29.40;50.50
19680;DHT22;9989;48.962;9.182;2023-07-13T14:40:25;29.30;50.60
19680;DHT22;9989;48.962;9.182;2023-07-13T14:42:52;29.20;50.60
19680;DHT22;9989;48.962;9.182;2023-07-13T14:45:19;29.20;51.40
19680;DHT22;9989;48.962;9.182;2023-07-13T14:47:46;29.20;53.20
19680;DHT22;9989;48.962;9.182;2023-07-13T14:50:22;29.30;53.70
19680;DHT22;9989;48.962;9.182;2023-07-13T14:52:49;29.40;54.10
19680;DHT22;9989;48.962;9.182;2023-07-13T14:55:17;29.40;53.80
19680;DHT22;9989;48.962;9.182;2023-07-13T14:57:43;29.40;53.50
19680;DHT22;9989;48.962;9.182;2023-07-13T15:02:41;29.50;53.70
19680;DHT22;9989;48.962;9.182;2023-07-13T15:05:20;29.50;53.90
19680;DHT22;9989;48.962;9.182;2023-07-13T15:07:48;29.50;53.70
19680;DHT22;9989;48.962;9.182;2023-07-13T15:10:19;29.40;53.30
19680;DHT22;9989;48.962;9.182;2023-07-13T15:12:46;29.40;53.30
19680;DHT22;9989;48.962;9.182;2023-07-13T15:15:12;29.30;52.70
19680;DHT22;9989;48.962;9.182;2023-07-13T15:17:40;29.20;53.80
19680;DHT22;9989;48.962;9.182;2023-07-13T15:22:41;29.10;54.30
19680;DHT22;9989;48.962;9.182;2023-07-13T15:25:28;29.20;53.20
19680;DHT22;9989;48.962;9.182;2023-07-13T15:27:56;29.10;52.90
19680;DHT22;9989;48.962;9.182;2023-07-13T15:30:27;29.10;53.60
19680;DHT22;9989;48.962;9.182;2023-07-13T15:33:13;29.10;53.50
19680;DHT22;9989;48.962;9.182;2023-07-13T15:35:39;29.10;54.00
19680;DHT22;9989;48.962;9.182;2023-07-13T15:38:14;29.10;54.00
19680;DHT22;9989;48.962;9.182;2023-07-13T15:40:41;29.10;53.50
19680;DHT22;9989;48.962;9.182;2023-07-13T15:43:11;29.10;53.80
19680;DHT22;9989;48.962;9.182;2023-07-13T15:45:37;28.90;53.10
19680;DHT22;9989;48.962;9.182;2023-07-13T15:48:15;28.90;54.30
19680;DHT22;9989;48.962;9.182;2023-07-13T15:50:54;28.90;53.80
19680;DHT22;9989;48.962;9.182;2023-07-13T15:53:24;28.80;53.60
19680;DHT22;9989;48.962;9.182;2023-07-13T15:55:50;28.80;53.70
19680;DHT22;9989;48.962;9.182;2023-07-13T15:58:17;28.80;53.90
19680;DHT22;9989;48.962;9.182;2023-07-13T16:00:43;28.70;54.20
19680;DHT22;9989;48.962;9.182;2023-07-13T16:03:10;28.60;54.40
19680;DHT22;9989;48.962;9.182;2023-07-13T16:05:37;28.60;53.50
19680;DHT22;9989;48.962;9.182;2023-07-13T16:08:09;28.60;53.00
19680;DHT22;9989;48.962;9.182;2023-07-13T16:10:41;28.50;52.90
19680;DHT22;9989;48.962;9.182;2023-07-13T16:13:26;28.50;53.60
19680;DHT22;9989;48.962;9.182;2023-07-13T16:15:53;28.40;53.50
19680;DHT22;9989;48.962;9.182;2023-07-13T16:18:21;28.20;53.00
19680;DHT22;9989;48.962;9.182;2023-07-13T16:20:47;28.20;53.40
19680;DHT22;9989;48.962;9.182;2023-07-13T16:23:15;28.10;53.10
19680;DHT22;9989;48.962;9.182;2023-07-13T16:25:41;28.10;53.50
19680;DHT22;9989;48.962;9.182;2023-07-13T16:28:09;28.00;54.70
19680;DHT22;9989;48.962;9.182;2023-07-13T16:30:35;28.00;54.00
19680;DHT22;9989;48.962;9.182;2023-07-13T16:33:02;28.00;54.60
19680;DHT22;9989;48.962;9.182;2023-07-13T16:35:33;27.90;54.00
19680;DHT22;9989;48.962;9.182;2023-07-13T16:38:01;27.90;54.90
19680;DHT22;9989;48.962;9.182;2023-07-13T16:40:30;27.90;54.80
19680;DHT22;9989;48.962;9.182;2023-07-13T16:42:57;27.80;54.90
19680;DHT22;9989;48.962;9.182;2023-07-13T16:45:28;27.70;54.80
19680;DHT22;9989;48.962;9.182;2023-07-13T16:47:59;27.70;55.20